createdAt,value
2022-12-14T00:02:08.366Z,94899.53
2022-12-14T00:04:41.327Z,94892.41
2022-12-14T00:07:14.565Z,94894.41
2022-12-14T00:09:47.477Z,94886.97
2022-12-14T00:12:20.424Z,94884.81
2022-12-14T00:14:53.711Z,94881.13
2022-12-14T00:17:28.392Z,94867.63
2022-12-14T00:20:01.381Z,94864.22
2022-12-14T00:22:34.385Z,94865.78
2022-12-14T00:25:08.464Z,94860.50
2022-12-14T00:27:44.497Z,94857.53
2022-12-14T00:30:20.636Z,94851.19
2022-12-14T00:32:55.047Z,94849.34
2022-12-14T00:35:28.329Z,94851.19
2022-12-14T00:38:01.451Z,94851.66
2022-12-14T00:40:34.359Z,94853.84
2022-12-14T00:43:07.270Z,94848.84
2022-12-14T00:45:40.347Z,94851.06
2022-12-14T00:48:16.339Z,94856.63
2022-12-14T00:50:50.997Z,94863.75
2022-12-14T00:53:24.771Z,94850.41
2022-12-14T00:55:58.863Z,94864.66
2022-12-14T00:58:32.022Z,94862.66
2022-12-14T01:01:07.956Z,94862.66
2022-12-14T01:03:42.645Z,94865.59
2022-12-14T01:06:17.324Z,94861.38
2022-12-14T01:08:50.600Z,94862.47
2022-12-14T01:11:23.751Z,94859.34
2022-12-14T01:13:57.134Z,94856.72
2022-12-14T01:16:30.129Z,94865.41
2022-12-14T01:19:05.211Z,94872.22
2022-12-14T01:21:38.222Z,94868.03
2022-12-14T01:24:11.360Z,94873.31
2022-12-14T01:26:44.351Z,94861.22
2022-12-14T01:29:17.676Z,94865.41
2022-12-14T01:31:50.690Z,94869.91
2022-12-14T01:34:25.163Z,94866.97
2022-12-14T01:36:58.136Z,94863.53
2022-12-14T01:39:31.483Z,94858.56
2022-12-14T01:42:04.876Z,94852.22
2022-12-14T01:44:57.356Z,94851.44
2022-12-14T01:47:38.460Z,94856.72
2022-12-14T01:50:21.352Z,94855.94
2022-12-14T01:52:58.000Z,94869.91
2022-12-14T01:55:35.645Z,94863.06
2022-12-14T01:58:12.490Z,94852.38
2022-12-14T02:00:45.977Z,94852.69
2022-12-14T02:03:23.952Z,94859.50
2022-12-14T02:06:02.355Z,94841.38
2022-12-14T02:08:35.948Z,94836.69
2022-12-14T02:11:08.893Z,94847.25
2022-12-14T02:13:43.803Z,94831.44
2022-12-14T02:16:21.657Z,94827.28
2022-12-14T02:18:54.836Z,94845.09
2022-12-14T02:21:45.709Z,94840.28
2022-12-14T02:24:44.471Z,94824.97
2022-12-14T02:27:38.346Z,94828.53
2022-12-14T02:30:16.076Z,94816.91
2022-12-14T02:33:14.143Z,94818.63
2022-12-14T02:35:51.968Z,94811.94
2022-12-14T02:38:43.234Z,94822.66
2022-12-14T02:41:23.904Z,94816.00
2022-12-14T02:44:06.982Z,94818.00
2022-12-14T02:46:50.567Z,94832.28
2022-12-14T02:49:35.900Z,94807.47
2022-12-14T02:52:15.616Z,94802.97
2022-12-14T02:54:55.977Z,94794.00
2022-12-14T02:57:31.970Z,94795.06
2022-12-14T03:00:08.143Z,94792.63
2022-12-14T03:02:44.843Z,94788.13
2022-12-14T03:05:18.092Z,94781.00
2022-12-14T03:07:54.103Z,94767.03
2022-12-14T03:10:36.304Z,94761.13
2022-12-14T03:13:16.557Z,94754.78
2022-12-14T03:15:56.902Z,94764.25
2022-12-14T03:18:37.047Z,94770.44
2022-12-14T03:21:13.057Z,94759.91
2022-12-14T03:23:48.863Z,94762.25
2022-12-14T03:26:27.203Z,94769.50
2022-12-14T03:29:06.899Z,94769.19
2022-12-14T03:31:49.153Z,94769.38
2022-12-14T03:34:29.660Z,94754.00
2022-12-14T03:37:10.724Z,94751.84
2022-12-14T03:39:47.058Z,94740.50
2022-12-14T03:42:24.920Z,94747.03
2022-12-14T03:45:06.906Z,94735.72
2022-12-14T03:47:55.092Z,94727.50
2022-12-14T03:50:35.532Z,94754.94
2022-12-14T03:53:16.846Z,94748.28
2022-12-14T03:56:00.570Z,94727.97
2022-12-14T03:58:39.172Z,94733.25
2022-12-14T04:01:18.494Z,94736.31
2022-12-14T04:03:57.190Z,94742.38
2022-12-14T04:06:39.366Z,94738.94
2022-12-14T04:09:23.937Z,94737.09
2022-12-14T04:12:20.601Z,94738.94
2022-12-14T04:15:24.370Z,94736.97
2022-12-14T04:18:17.927Z,94739.28
2022-12-14T04:20:55.025Z,94727.50
2022-12-14T04:23:51.889Z,94713.53
2022-12-14T04:26:31.154Z,94707.78
2022-12-14T04:29:25.992Z,94721.75
2022-12-14T04:32:05.954Z,94707.00
2022-12-14T04:34:42.877Z,94708.88
2022-12-14T04:37:20.439Z,94708.56
2022-12-14T04:40:00.540Z,94701.44
2022-12-14T04:42:37.507Z,94703.75
2022-12-14T04:45:15.982Z,94702.03
2022-12-14T04:47:59.119Z,94704.06
2022-12-14T04:50:36.792Z,94707.47
2022-12-14T04:53:13.373Z,94694.44
2022-12-14T04:55:53.852Z,94703.56
2022-12-14T04:58:29.531Z,94687.13
2022-12-14T05:01:19.040Z,94674.09
2022-12-14T05:04:00.955Z,94676.41
2022-12-14T05:06:38.808Z,94659.50
2022-12-14T05:09:18.857Z,94664.94
2022-12-14T05:12:01.925Z,94667.69
2022-12-14T05:14:41.003Z,94674.53
2022-12-14T05:17:15.306Z,94675.00
2022-12-14T05:19:49.278Z,94650.94
2022-12-14T05:22:22.780Z,94664.91
2022-12-14T05:24:56.087Z,94661.63
2022-12-14T05:27:30.869Z,94648.13
2022-12-14T05:30:04.246Z,94649.66
2022-12-14T05:32:37.398Z,94646.72
2022-12-14T05:35:13.903Z,94635.84
2022-12-14T05:37:49.398Z,94648.28
2022-12-14T05:40:22.634Z,94642.22
2022-12-14T05:43:06.724Z,94638.50
2022-12-14T05:45:39.979Z,94628.25
2022-12-14T05:48:12.915Z,94635.06
2022-12-14T05:50:45.981Z,94615.06
2022-12-14T05:53:18.868Z,94618.47
2022-12-14T05:55:53.325Z,94613.50
2022-12-14T05:58:27.647Z,94607.47
2022-12-14T06:01:02.357Z,94608.69
2022-12-14T06:03:36.088Z,94604.50
2022-12-14T06:06:11.145Z,94609.00
2022-12-14T06:08:46.045Z,94603.72
2022-12-14T06:11:21.007Z,94610.09
2022-12-14T06:13:55.204Z,94600.31
2022-12-14T06:16:28.254Z,94591.94
2022-12-14T06:19:02.752Z,94590.38
2022-12-14T06:21:37.013Z,94605.78
2022-12-14T06:24:12.120Z,94602.81
2022-12-14T06:26:45.505Z,94596.31
2022-12-14T06:29:21.158Z,94594.47
2022-12-14T06:31:54.061Z,94589.03
2022-12-14T06:34:28.726Z,94591.34
2022-12-14T06:37:02.042Z,94582.22
2022-12-14T06:39:35.311Z,94567.47
2022-12-14T06:42:08.509Z,94567.47
2022-12-14T06:44:43.046Z,94571.97
2022-12-14T06:47:16.140Z,94570.44
2022-12-14T06:49:51.269Z,94577.25
2022-12-14T06:52:26.956Z,94555.38
2022-12-14T06:55:00.581Z,94550.44
2022-12-14T06:57:33.616Z,94555.06
2022-12-14T07:00:12.200Z,94551.63
2022-12-14T07:02:45.234Z,94557.69
2022-12-14T07:05:18.925Z,94559.25
2022-12-14T07:07:52.333Z,94547.13
2022-12-14T07:10:25.252Z,94556.28
2022-12-14T07:13:01.154Z,94555.50
2022-12-14T07:15:35.799Z,94557.84
2022-12-14T07:18:09.111Z,94552.09
2022-12-14T07:20:42.154Z,94555.50
2022-12-14T07:23:15.193Z,94558.47
2022-12-14T07:25:49.186Z,94558.16
2022-12-14T07:28:22.744Z,94556.13
2022-12-14T07:30:58.465Z,94568.25
2022-12-14T07:33:31.672Z,94550.09
2022-12-14T07:36:07.162Z,94529.13
2022-12-14T07:38:42.278Z,94545.75
2022-12-14T07:41:22.117Z,94535.66
2022-12-14T07:43:57.247Z,94533.78
2022-12-14T07:46:33.197Z,94541.50
2022-12-14T07:49:06.186Z,94529.09
2022-12-14T07:51:42.371Z,94530.78
2022-12-14T07:54:16.314Z,94533.84
2022-12-14T07:56:50.945Z,94532.78
2022-12-14T07:59:23.990Z,94528.41
2022-12-14T08:01:58.482Z,94529.31
2022-12-14T08:04:31.785Z,94543.41
2022-12-14T08:07:07.147Z,94544.31
2022-12-14T08:09:40.165Z,94542.59
2022-12-14T08:12:16.258Z,94544.56
2022-12-14T08:14:49.997Z,94550.13
2022-12-14T08:17:24.516Z,94548.69
2022-12-14T08:19:57.613Z,94560.94
2022-12-14T08:22:30.710Z,94554.25
2022-12-14T08:25:03.556Z,94554.38
2022-12-14T08:27:36.951Z,94550.63
2022-12-14T08:30:11.219Z,94552.34
2022-12-14T08:32:45.675Z,94553.84
2022-12-14T08:35:18.855Z,94552.44
2022-12-14T08:37:53.481Z,94549.03
2022-12-14T08:40:26.819Z,94542.34
2022-12-14T08:42:59.685Z,94535.66
2022-12-14T08:45:33.822Z,94541.34
2022-12-14T08:48:08.365Z,94548.19
2022-12-14T08:50:41.320Z,94547.41
2022-12-14T08:53:14.228Z,94529.69
2022-12-14T08:55:47.848Z,94531.13
2022-12-14T08:58:20.732Z,94540.59
2022-12-14T09:01:01.802Z,94528.94
2022-12-14T09:03:36.478Z,94527.84
2022-12-14T09:06:11.090Z,94522.56
2022-12-14T09:08:44.002Z,94525.66
2022-12-14T09:11:19.071Z,94543.94
2022-12-14T09:13:54.728Z,94552.00
2022-12-14T09:16:28.133Z,94557.41
2022-12-14T09:19:02.798Z,94559.38
2022-12-14T09:21:35.860Z,94550.03
2022-12-14T09:24:09.944Z,94546.88
2022-12-14T09:26:43.084Z,94539.41
2022-12-14T09:29:22.633Z,94547.78
2022-12-14T09:31:56.009Z,94550.97
2022-12-14T09:34:30.711Z,94541.75
2022-12-14T09:37:07.892Z,94529.44
2022-12-14T09:39:41.187Z,94532.97
2022-12-14T09:42:30.645Z,94537.72
2022-12-14T09:45:15.266Z,94522.75
2022-12-14T09:47:57.703Z,94502.81
2022-12-14T09:50:32.503Z,94509.66
2022-12-14T09:53:09.812Z,94507.78
2022-12-14T09:55:46.069Z,94520.66
2022-12-14T09:58:22.391Z,94517.03
2022-12-14T10:01:05.911Z,94522.00
2022-12-14T10:03:53.254Z,94514.53
2022-12-14T10:06:38.155Z,94491.59
2022-12-14T10:09:22.230Z,94478.50
2022-12-14T10:12:05.147Z,94495.25
2022-12-14T10:14:58.734Z,94500.75
2022-12-14T10:17:44.953Z,94496.13
2022-12-14T10:20:25.126Z,94486.53
2022-12-14T10:23:03.901Z,94484.13
2022-12-14T10:25:40.044Z,94490.06
2022-12-14T10:28:18.590Z,94486.94
2022-12-14T10:30:58.976Z,94484.63
2022-12-14T10:33:33.232Z,94474.25
2022-12-14T10:36:18.522Z,94482.81
2022-12-14T10:38:59.943Z,94482.03
2022-12-14T10:41:49.432Z,94476.97
2022-12-14T10:44:31.179Z,94478.38
2022-12-14T10:47:12.856Z,94473.94
2022-12-14T10:49:55.198Z,94470.38
2022-12-14T10:52:36.889Z,94462.19
2022-12-14T10:55:19.088Z,94458.59
2022-12-14T10:57:52.344Z,94450.84
2022-12-14T11:00:26.164Z,94446.47
2022-12-14T11:03:01.232Z,94465.81
2022-12-14T11:05:40.737Z,94460.72
2022-12-14T11:08:40.884Z,94470.63
2022-12-14T11:11:20.308Z,94456.34
2022-12-14T11:13:57.682Z,94457.31
2022-12-14T11:16:38.483Z,94445.75
2022-12-14T11:19:18.313Z,94450.88
2022-12-14T11:21:52.650Z,94443.88
2022-12-14T11:24:28.093Z,94441.81
2022-12-14T11:27:06.360Z,94440.59
2022-12-14T11:29:41.527Z,94430.16
2022-12-14T11:32:23.860Z,94427.31
2022-12-14T11:34:59.156Z,94429.34
2022-12-14T11:37:33.748Z,94424.88
2022-12-14T11:40:09.213Z,94420.84
2022-12-14T11:42:49.339Z,94432.28
2022-12-14T11:45:37.495Z,94435.38
2022-12-14T11:48:24.224Z,94430.13
2022-12-14T11:51:12.664Z,94419.94
2022-12-14T11:54:02.116Z,94427.56
2022-12-14T11:56:39.084Z,94428.47
2022-12-14T11:59:18.755Z,94424.72
2022-12-14T12:01:52.218Z,94429.72
2022-12-14T12:04:25.814Z,94437.00
2022-12-14T12:07:04.343Z,94443.88
2022-12-14T12:09:43.018Z,94452.75
2022-12-14T12:12:21.776Z,94443.31
2022-12-14T12:15:00.903Z,94459.06
2022-12-14T12:17:44.503Z,94443.94
2022-12-14T12:20:29.544Z,94442.13
2022-12-14T12:23:11.979Z,94461.22
2022-12-14T12:25:49.577Z,94448.00
2022-12-14T12:28:28.463Z,94447.72
2022-12-14T12:31:10.965Z,94448.22
2022-12-14T12:33:48.776Z,94442.91
2022-12-14T12:36:24.505Z,94459.66
2022-12-14T12:39:05.674Z,94454.50
2022-12-14T12:41:51.370Z,94454.16
2022-12-14T12:44:36.853Z,94453.88
2022-12-14T12:47:31.180Z,94458.13
2022-12-14T12:50:15.611Z,94448.69
2022-12-14T12:53:02.712Z,94451.41
2022-12-14T12:55:42.971Z,94439.66
2022-12-14T12:58:34.204Z,94435.16
2022-12-14T13:01:20.639Z,94433.28
2022-12-14T13:03:58.192Z,94425.34
2022-12-14T13:06:33.659Z,94430.31
2022-12-14T13:09:16.808Z,94425.41
2022-12-14T13:11:50.485Z,94418.56
2022-12-14T13:14:31.103Z,94431.19
2022-12-14T13:17:08.251Z,94441.50
2022-12-14T13:19:51.900Z,94450.66
2022-12-14T13:22:29.746Z,94452.97
2022-12-14T13:25:08.261Z,94455.63
2022-12-14T13:28:01.223Z,94454.50
2022-12-14T13:30:49.924Z,94459.06
2022-12-14T13:33:51.874Z,94466.69
2022-12-14T13:37:21.451Z,94468.22
2022-12-14T13:40:34.467Z,94456.41
2022-12-14T13:43:22.288Z,94463.25
2022-12-14T13:45:56.354Z,94472.00
2022-12-14T13:48:35.759Z,94471.66
2022-12-14T13:51:11.650Z,94468.22
2022-12-14T13:53:50.289Z,94475.44
2022-12-14T13:56:33.254Z,94475.44
2022-12-14T13:59:20.596Z,94491.38
2022-12-14T14:01:58.319Z,94489.84
2022-12-14T14:04:32.281Z,94502.38
2022-12-14T14:07:39.409Z,94503.56
2022-12-14T14:10:30.853Z,94503.56
2022-12-14T14:13:44.027Z,94515.00
2022-12-14T14:16:29.884Z,94515.75
2022-12-14T14:19:14.393Z,94529.50
2022-12-14T14:25:09.455Z,94545.44
2022-12-14T14:27:50.818Z,94544.34
2022-12-14T14:30:29.175Z,94555.31
2022-12-14T14:33:43.115Z,94548.47
2022-12-14T14:36:09.373Z,94556.88
2022-12-14T14:38:42.979Z,94543.13
2022-12-14T14:41:25.036Z,94550.00
2022-12-14T14:44:01.567Z,94554.13
2022-12-14T14:46:39.467Z,94556.38
2022-12-14T14:49:23.529Z,94555.53
2022-12-14T14:51:56.898Z,94553.16
2022-12-14T14:55:15.865Z,94560.75
2022-12-14T14:57:57.467Z,94557.22
2022-12-14T15:00:31.628Z,94559.06
2022-12-14T15:03:08.697Z,94560.59
2022-12-14T15:05:45.619Z,94555.22
2022-12-14T15:08:22.044Z,94573.06
2022-12-14T15:10:56.324Z,94575.28
2022-12-14T15:13:34.610Z,94566.13
2022-12-14T15:16:22.431Z,94572.56
2022-12-14T15:18:56.830Z,94578.59
2022-12-14T15:21:30.156Z,94582.69
2022-12-14T15:24:03.169Z,94578.44
2022-12-14T15:26:36.045Z,94584.09
2022-12-14T15:29:18.043Z,94586.34
2022-12-14T15:31:59.284Z,94582.91
2022-12-14T15:34:34.552Z,94585.47
2022-12-14T15:37:07.491Z,94588.91
2022-12-14T15:39:43.712Z,94590.03
2022-12-14T15:42:18.523Z,94588.13
2022-12-14T15:44:52.393Z,94595.78
2022-12-14T15:47:28.345Z,94590.44
2022-12-14T15:50:23.456Z,94598.50
2022-12-14T15:53:00.172Z,94601.94
2022-12-14T15:55:36.010Z,94606.56
2022-12-14T15:58:12.190Z,94609.63
2022-12-14T16:00:48.168Z,94614.25
2022-12-14T16:03:29.907Z,94611.69
2022-12-14T16:06:06.018Z,94614.00
2022-12-14T16:08:44.301Z,94609.09
2022-12-14T16:11:24.619Z,94622.47
2022-12-14T16:14:01.881Z,94617.56
2022-12-14T16:16:34.905Z,94610.78
2022-12-14T16:19:26.671Z,94613.50
2022-12-14T16:22:19.671Z,94611.69
2022-12-14T16:25:00.476Z,94614.72
2022-12-14T16:27:38.255Z,94619.31
2022-12-14T16:30:21.810Z,94625.50
2022-12-14T16:33:08.546Z,94625.06
2022-12-14T16:35:41.669Z,94637.25
2022-12-14T16:38:17.572Z,94636.47
2022-12-14T16:40:55.562Z,94638.03
2022-12-14T16:43:32.805Z,94634.25
2022-12-14T16:46:18.533Z,94632.41
2022-12-14T16:49:25.313Z,94642.72
2022-12-14T16:52:08.843Z,94654.47
2022-12-14T16:54:44.039Z,94647.25
2022-12-14T16:57:24.328Z,94656.88
2022-12-14T17:00:01.452Z,94655.31
2022-12-14T17:02:36.872Z,94652.66
2022-12-14T17:05:17.949Z,94663.72
2022-12-14T17:07:52.562Z,94662.97
2022-12-14T17:10:27.425Z,94667.50
2022-12-14T17:13:01.850Z,94669.41
2022-12-14T17:15:36.282Z,94667.84
2022-12-14T17:18:12.322Z,94670.94
2022-12-14T17:20:47.011Z,94670.50
2022-12-14T17:23:20.578Z,94674.28
2022-12-14T17:25:55.055Z,94675.84
2022-12-14T17:28:30.152Z,94682.63
2022-12-14T17:31:04.260Z,94683.75
2022-12-14T17:33:38.239Z,94679.53
2022-12-14T17:36:11.341Z,94671.16
2022-12-14T17:38:44.756Z,94661.63
2022-12-14T17:41:26.786Z,94669.59
2022-12-14T17:43:59.908Z,94666.81
2022-12-14T17:46:33.046Z,94662.59
2022-12-14T17:49:07.010Z,94663.28
2022-12-14T17:51:42.217Z,94649.56
2022-12-14T17:54:18.255Z,94649.13
2022-12-14T17:57:24.478Z,94641.53
2022-12-14T18:00:11.127Z,94639.88
2022-12-14T18:02:46.238Z,94640.59
2022-12-14T18:05:26.060Z,94653.91
2022-12-14T18:07:59.273Z,94642.84
2022-12-14T18:10:32.436Z,94638.97
2022-12-14T18:13:07.129Z,94643.94
2022-12-14T18:15:43.196Z,94643.94
2022-12-14T18:18:16.596Z,94644.38
2022-12-14T18:20:52.836Z,94655.78
2022-12-14T18:23:27.804Z,94650.09
2022-12-14T18:26:02.699Z,94654.72
2022-12-14T18:28:37.774Z,94652.50
2022-12-14T18:31:20.732Z,94652.16
2022-12-14T18:33:54.641Z,94649.13
2022-12-14T18:36:27.826Z,94653.34
2022-12-14T18:39:01.301Z,94653.75
2022-12-14T18:41:34.849Z,94654.53
2022-12-14T18:44:11.947Z,94648.44
2022-12-14T18:46:49.188Z,94652.22
2022-12-14T18:49:23.240Z,94667.06
2022-12-14T18:52:00.594Z,94648.44
2022-12-14T18:54:33.657Z,94651.09
2022-12-14T18:57:07.003Z,94652.94
2022-12-14T18:59:46.932Z,94651.44
2022-12-14T19:02:19.983Z,94652.94
2022-12-14T19:04:55.359Z,94662.81
2022-12-14T19:07:35.080Z,94651.78
2022-12-14T19:10:08.706Z,94652.50
2022-12-14T19:12:48.589Z,94660.47
2022-12-14T19:15:25.203Z,94663.91
2022-12-14T19:17:58.911Z,94655.84
2022-12-14T19:20:31.884Z,94653.97
2022-12-14T19:23:05.345Z,94666.91
2022-12-14T19:25:38.647Z,94661.50
2022-12-14T19:28:30.888Z,94674.03
2022-12-14T19:31:07.083Z,94667.59
2022-12-14T19:33:41.450Z,94676.69
2022-12-14T19:36:14.583Z,94666.78
2022-12-14T19:38:49.124Z,94667.94
2022-12-14T19:41:23.340Z,94673.25
2022-12-14T19:44:04.849Z,94675.19
2022-12-14T19:46:41.805Z,94664.53
2022-12-14T19:49:16.699Z,94671.31
2022-12-14T19:51:50.795Z,94666.44
2022-12-14T19:54:24.294Z,94666.78
2022-12-14T19:56:58.057Z,94664.88
2022-12-14T19:59:31.033Z,94662.56
2022-12-14T20:02:05.773Z,94663.00
2022-12-14T20:04:39.981Z,94665.56
2022-12-14T20:07:18.423Z,94671.66
2022-12-14T20:09:51.588Z,94675.88
2022-12-14T20:12:25.123Z,94668.22
2022-12-14T20:15:00.978Z,94673.13
2022-12-14T20:17:54.374Z,94681.94
2022-12-14T20:20:32.063Z,94672.78
2022-12-14T20:23:05.396Z,94676.97
2022-12-14T20:25:41.798Z,94686.50
2022-12-14T20:28:14.906Z,94690.28
2022-12-14T20:30:49.587Z,94689.16
2022-12-14T20:33:29.927Z,94693.78
2022-12-14T20:36:08.204Z,94699.13
2022-12-14T20:38:43.614Z,94693.38
2022-12-14T20:41:20.959Z,94696.84
2022-12-14T20:43:56.737Z,94700.28
2022-12-14T20:46:41.253Z,94705.28
2022-12-14T20:49:22.641Z,94696.59
2022-12-14T20:51:58.238Z,94704.59
2022-12-14T20:54:31.369Z,94704.59
2022-12-14T20:57:06.412Z,94704.25
2022-12-14T20:59:39.506Z,94702.69
2022-12-14T21:02:20.295Z,94696.66
2022-12-14T21:04:59.691Z,94692.84
2022-12-14T21:07:33.561Z,94702.31
2022-12-14T21:10:07.637Z,94710.69
2022-12-14T21:12:42.468Z,94708.41
2022-12-14T21:15:15.502Z,94709.19
2022-12-14T21:17:50.280Z,94716.78
2022-12-14T21:20:25.021Z,94725.88
2022-12-14T21:22:57.975Z,94721.66
2022-12-14T21:25:30.851Z,94719.34
2022-12-14T21:28:08.669Z,94727.31
2022-12-14T21:30:41.547Z,94721.13
2022-12-14T21:33:14.772Z,94713.09
2022-12-14T21:35:49.292Z,94703.13
2022-12-14T21:38:22.365Z,94707.63
2022-12-14T21:41:25.030Z,94706.75
2022-12-14T21:44:00.102Z,94700.56
2022-12-14T21:46:33.237Z,94713.00
2022-12-14T21:49:06.746Z,94717.22
2022-12-14T21:51:41.293Z,94713.34
2022-12-14T21:54:15.691Z,94718.66
2022-12-14T21:57:16.762Z,94719.00
2022-12-14T21:59:49.782Z,94721.66
2022-12-14T22:02:25.641Z,94713.69
2022-12-14T22:04:58.833Z,94710.28
2022-12-14T22:07:35.035Z,94709.50
2022-12-14T22:10:08.448Z,94714.72
2022-12-14T22:12:41.348Z,94717.66
2022-12-14T22:15:17.048Z,94714.22
2022-12-14T22:17:50.740Z,94720.66
2022-12-14T22:20:24.835Z,94710.69
2022-12-14T22:23:00.322Z,94723.22
2022-12-14T22:25:34.274Z,94726.66
2022-12-14T22:28:08.601Z,94732.66
2022-12-14T22:30:44.198Z,94728.03
2022-12-14T22:33:17.107Z,94729.91
2022-12-14T22:35:50.140Z,94741.66
2022-12-14T22:38:24.722Z,94734.03
2022-12-14T22:41:03.128Z,94737.78
2022-12-14T22:43:37.544Z,94733.84
2022-12-14T22:46:12.647Z,94742.50
2022-12-14T22:48:47.034Z,94739.78
2022-12-14T22:51:20.758Z,94748.09
2022-12-14T22:53:55.279Z,94745.44
2022-12-14T22:56:33.045Z,94757.16
2022-12-14T22:59:08.866Z,94758.28
2022-12-14T23:01:42.272Z,94751.06
2022-12-14T23:04:15.660Z,94752.97
2022-12-14T23:06:48.696Z,94760.94
2022-12-14T23:09:40.771Z,94766.25
2022-12-14T23:12:31.011Z,94760.16
2022-12-14T23:15:21.814Z,94750.63
2022-12-14T23:18:13.558Z,94747.22
2022-12-14T23:21:03.780Z,94759.72
2022-12-14T23:23:56.371Z,94767.34
2022-12-14T23:26:48.567Z,94778.41
2022-12-14T23:29:39.014Z,94779.88
2022-12-14T23:32:29.506Z,94770.34
2022-12-14T23:35:19.613Z,94773.78
2022-12-14T23:38:10.059Z,94780.56
2022-12-14T23:41:00.501Z,94780.13
2022-12-14T23:43:52.202Z,94775.91
2022-12-14T23:46:42.548Z,94770.16
2022-12-14T23:49:32.923Z,94784.56
2022-12-14T23:52:23.970Z,94775.03
2022-12-14T23:55:14.748Z,94780.34
2022-12-14T23:58:05.164Z,94768.22
